Latest Weather Observations for Beerburrum

IDQ60801

Issued at 7:02 pm EST Wednesday 29 July 2015 (issued every 30 minutes, with the page automatically refreshed every 10 minutes)

About weather observations | Map of weather stations | Latest weather observations for QLD | Other Formats
Station Details ID: 040284 Name: BEERBURRUM FOREST STATION Lat: -26.96 Lon: 152.96 Height: 48.0 m
Data from the previous 72 hours. | See also: Recent months at Beerburrum
Date/Time
EST
Temp
°C
App
Temp
°C
Dew
Point
Rel
Hum
%
Delta-T
°C
Wind Press
QNH
hPa
Press
MSL
hPa
Rain
since 9 am
mm
Dir
 
Spd
km/h
Gust
km/h
Spd
kts
Gust
kts
29/07:00pm 10.4 9.6 8.2 86 1.1 WSW 2 7 1 4 - - 0.0
29/06:30pm 11.0 10.5 7.9 81 1.5 CALM 0 0 0 0 - - 0.0
29/06:00pm 12.2 11.7 7.9 75 2.1 CALM 0 0 0 0 - - 0.0
29/05:30pm 13.4 12.9 8.0 70 2.7 CALM 0 0 0 0 - - 0.0
29/05:00pm 15.4 14.9 7.9 61 3.8 CALM 0 0 0 0 - - 0.0
29/04:30pm 18.9 18.3 7.4 47 5.8 CALM 0 6 0 3 - - 0.0
29/04:00pm 19.5 17.9 6.3 42 6.6 ESE 4 7 2 4 - - 0.0
29/03:30pm 19.9 17.7 6.3 41 6.8 E 7 13 4 7 - - 0.0
29/03:00pm 19.8 17.6 5.5 39 7.0 SE 6 9 3 5 - - 0.0
29/02:30pm 19.9 17.6 5.9 40 7.0 SE 7 15 4 8 - - 0.0
29/02:00pm 20.0 17.8 6.0 40 7.0 SE 7 15 4 8 - - 0.0
29/01:30pm 20.1 17.4 5.4 38 7.2 SE 9 15 5 8 - - 0.0
29/01:00pm 19.2 16.3 4.6 38 7.0 SSE 9 15 5 8 - - 0.0
29/12:30pm 19.9 17.3 5.9 40 7.0 SSE 9 15 5 8 - - 0.0
29/12:00pm 19.7 16.8 4.6 37 7.3 S 9 20 5 11 - - 0.0
29/11:30am 19.3 16.4 4.6 38 7.1 S 9 19 5 10 - - 0.0
29/11:00am 18.6 15.8 5.1 41 6.5 S 9 17 5 9 - - 0.0
29/10:30am 17.9 15.2 5.5 44 6.0 S 9 17 5 9 - - 0.0
29/10:00am 17.7 15.7 7.2 50 5.3 S 7 11 4 6 - - 0.0
29/09:30am 16.1 14.2 7.6 57 4.3 SSW 7 13 4 7 - - 0.0
29/09:00am 15.0 13.7 7.5 61 3.7 SW 4 7 2 4 - - 0.0
29/08:30am 13.5 12.5 8.8 73 2.4 SSW 4 6 2 3 - - 0.0
29/08:00am 11.7 11.6 9.6 87 1.1 CALM 0 0 0 0 - - 0.0
29/07:30am 8.7 8.2 7.8 94 0.4 CALM 0 0 0 0 - - 0.0
29/07:00am 6.9 5.9 5.8 93 0.5 CALM 0 0 0 0 - - 0.0
29/06:30am 6.6 5.6 5.6 93 0.4 CALM 0 0 0 0 - - 0.0
29/06:00am 6.4 5.3 5.2 92 0.5 CALM 0 0 0 0 - - 0.0
29/05:30am 6.5 5.4 5.3 92 0.5 CALM 0 0 0 0 - - 0.0
29/05:00am 6.3 5.2 4.9 91 0.6 CALM 0 0 0 0 - - 0.0
29/04:30am 6.6 5.5 5.1 90 0.7 CALM 0 0 0 0 - - 0.0
29/04:00am 6.5 5.4 5.0 90 0.7 CALM 0 0 0 0 - - 0.0
29/03:30am 7.0 5.9 5.2 88 0.8 CALM 0 0 0 0 - - 0.0
29/03:00am 7.6 6.6 5.7 88 0.9 CALM 0 0 0 0 - - 0.0
29/02:30am 7.8 5.7 5.8 87 0.9 SW 6 7 3 4 - - 0.0
29/02:00am 8.1 5.8 5.9 86 1.0 SW 7 9 4 5 - - 0.0
29/01:30am 8.2 6.2 6.2 87 0.9 SW 6 7 3 4 - - 0.0
29/01:00am 8.4 6.4 6.2 86 1.0 SW 6 7 3 4 - - 0.0
29/12:30am 8.6 6.7 6.6 87 0.9 SW 6 7 3 4 - - 0.0
29/12:00am 9.2 7.3 6.8 85 1.1 SW 6 7 3 4 - - 0.0
 
Date/Time
EST
Temp
°C
App
Temp
°C
Dew
Point
Rel
Hum
%
Delta-T
°C
Wind Press
QNH
hPa
Press
MSL
hPa
Rain
since 9 am
mm
Dir
 
Spd
km/h
Gust
km/h
Spd
kts
Gust
kts
28/11:30pm 9.5 7.8 7.4 87 1.0 SW 6 9 3 5 - - 0.0
28/11:00pm 9.4 7.7 7.5 88 0.9 SW 6 7 3 4 - - 0.0
28/10:30pm 9.5 7.9 7.8 89 0.8 SW 6 7 3 4 - - 0.0
28/10:00pm 9.0 7.2 7.3 89 0.8 SW 6 7 3 4 - - 0.0
28/09:30pm 9.4 7.7 7.5 88 0.9 SW 6 7 3 4 - - 0.0
28/09:00pm 9.7 8.1 7.8 88 0.9 SW 6 7 3 4 - - 0.0
28/08:30pm 10.2 9.4 8.3 88 0.9 SSW 2 7 1 4 - - 0.0
28/08:00pm 10.5 9.4 8.6 88 0.9 SW 4 6 2 3 - - 0.0
28/07:30pm 10.4 10.0 8.3 87 1.0 CALM 0 4 0 2 - - 0.0
28/07:00pm 10.9 10.6 8.7 86 1.1 CALM 0 0 0 0 - - 0.0
28/06:30pm 11.3 11.1 8.9 85 1.2 CALM 0 0 0 0 - - 0.0
28/06:00pm 12.0 11.7 8.7 80 1.6 CALM 0 0 0 0 - - 0.0
28/05:30pm 13.0 12.3 8.7 75 2.2 S 2 6 1 3 - - 0.0
28/05:00pm 14.5 13.4 8.5 67 3.0 S 4 7 2 4 - - 0.0
28/04:30pm 16.8 16.2 9.0 60 4.0 S 2 9 1 5 - - 0.0
28/04:00pm 18.0 17.1 7.7 51 5.2 NNE 2 7 1 4 - - 0.0
28/03:30pm 18.3 16.4 6.8 47 5.8 SSE 6 13 3 7 - - 0.0
28/03:00pm 18.9 16.8 6.7 45 6.1 E 7 15 4 8 - - 0.0
28/02:30pm 18.8 16.8 7.3 47 5.8 SSE 7 15 4 8 - - 0.0
28/02:00pm 19.0 16.7 7.4 47 5.9 SE 9 19 5 10 - - 0.0
28/01:30pm 19.1 17.0 8.4 50 5.6 SSE 9 19 5 10 - - 0.0
28/01:00pm 18.9 16.4 8.0 49 5.6 SSE 11 20 6 11 - - 0.0
28/12:30pm 19.5 17.5 8.8 50 5.6 SE 9 17 5 9 - - 0.0
28/12:00pm 17.8 14.9 8.1 53 5.0 SSE 13 20 7 11 - - 0.0
28/11:30am 17.4 14.4 7.7 53 4.9 S 13 24 7 13 - - 0.0
28/11:00am 17.9 15.9 8.7 55 4.8 SSE 9 19 5 10 - - 0.0
28/10:30am 17.3 15.0 7.6 53 4.9 S 9 17 5 9 - - 0.0
28/10:00am 18.2 16.6 8.7 54 4.9 S 7 13 4 7 - - 0.0
28/09:30am 17.1 15.2 7.7 54 4.7 SSW 7 15 4 8 - - 0.0
28/09:00am 15.0 13.7 7.5 61 3.7 SW 4 6 2 3 - - 0.0
28/08:30am 13.5 12.9 7.3 66 3.0 CALM 0 6 0 3 - - 0.0
28/08:00am 13.3 12.4 7.7 69 2.8 N 2 6 1 3 - - 0.0
28/07:30am 11.7 11.1 7.4 75 2.1 CALM 0 0 0 0 - - 0.0
28/07:00am 10.6 10.0 7.3 80 1.6 CALM 0 0 0 0 - - 0.0
28/06:30am 10.0 9.1 6.2 77 1.8 CALM 0 0 0 0 - - 0.0
28/06:00am 10.3 9.4 5.9 74 2.0 CALM 0 0 0 0 - - 0.0
28/05:30am 10.9 9.5 5.7 70 2.4 E 2 6 1 3 - - 0.0
28/05:00am 11.1 10.1 5.8 70 2.5 CALM 0 0 0 0 - - 0.0
28/04:30am 11.3 10.4 6.2 71 2.4 CALM 0 4 0 2 - - 0.0
28/04:00am 10.5 9.4 5.1 69 2.5 CALM 0 0 0 0 - - 0.0
28/03:30am 10.4 9.2 4.5 67 2.6 CALM 0 6 0 3 - - 0.0
28/03:00am 10.9 8.5 4.4 64 2.9 WSW 6 9 3 5 - - 0.0
28/02:30am 11.0 8.4 4.0 62 3.1 WSW 7 15 4 8 - - 0.0
28/02:00am 11.0 8.0 4.0 62 3.1 WSW 9 13 5 7 - - 0.0
28/01:30am 11.0 7.9 3.8 61 3.2 WSW 9 11 5 6 - - 0.0
28/01:00am 11.0 8.0 4.0 62 3.1 WSW 9 13 5 7 - - 0.0
28/12:30am 11.4 8.8 4.2 61 3.2 WSW 7 11 4 6 - - 0.0
28/12:00am 11.8 8.8 4.3 60 3.4 WSW 9 15 5 8 - - 0.0
 
Date/Time
EST
Temp
°C
App
Temp
°C
Dew
Point
Rel
Hum
%
Delta-T
°C
Wind Press
QNH
hPa
Press
MSL
hPa
Rain
since 9 am
mm
Dir
 
Spd
km/h
Gust
km/h
Spd
kts
Gust
kts
27/11:30pm 12.1 9.8 4.6 60 3.4 WSW 6 11 3 6 - - 0.0
27/11:00pm 12.3 9.8 4.8 60 3.4 WSW 7 11 4 6 - - 0.0
27/10:30pm 12.0 9.9 5.9 66 2.9 W 6 9 3 5 - - 0.0
27/10:00pm 11.8 10.5 5.9 67 2.8 WSW 2 6 1 3 - - 0.0
27/09:30pm 12.2 11.0 6.3 67 2.8 W 2 7 1 4 - - 0.0
27/09:00pm 13.2 11.3 6.5 64 3.2 WSW 6 9 3 5 - - 0.0
27/08:30pm 13.6 11.9 7.6 67 3.0 SW 6 9 3 5 - - 0.0
27/08:00pm 14.6 13.7 6.2 57 4.0 CALM 0 6 0 3 - - 0.0
27/07:30pm 15.0 13.2 7.1 59 3.9 WSW 6 9 3 5 - - 0.0
27/07:00pm 15.6 13.8 7.1 57 4.2 WSW 6 11 3 6 - - 0.0
27/06:30pm 15.6 14.9 6.9 56 4.3 CALM 0 0 0 0 - - 0.0
27/06:00pm 16.1 15.3 6.5 53 4.7 CALM 0 0 0 0 - - 0.0
27/05:30pm 16.2 15.0 6.6 53 4.7 W 2 6 1 3 - - 0.0
27/05:00pm 17.3 15.6 5.9 47 5.6 WSW 4 7 2 4 - - 0.0
27/04:30pm 18.5 17.2 7.6 49 5.5 SSW 4 9 2 5 - - 0.0
27/04:00pm 19.9 18.1 7.0 43 6.5 WSW 6 13 3 7 - - 0.0
27/03:30pm 20.5 18.5 6.4 40 7.1 SW 6 11 3 6 - - 0.0
27/03:00pm 21.3 19.0 4.8 34 8.1 SSW 6 9 3 5 - - 0.0
27/02:30pm 22.4 20.7 7.4 38 7.8 SW 6 9 3 5 - - 0.0
27/02:00pm 21.8 19.7 6.5 37 7.8 WSW 7 13 4 7 - - 0.0
27/01:30pm 21.8 19.4 5.3 34 8.2 WSW 7 11 4 6 - - 0.0
27/01:00pm 21.9 19.4 4.9 33 8.4 WSW 7 11 4 6 - - 0.0
27/12:30pm 21.6 19.8 8.1 42 7.1 WNW 7 17 4 9 - - 0.0
27/12:00pm 21.5 19.3 6.2 37 7.7 SW 7 15 4 8 - - 0.0
27/11:30am 21.5 18.9 6.2 37 7.7 W 9 17 5 9 - - 0.0
27/11:00am 21.5 19.3 7.7 41 7.2 WSW 9 17 5 9 - - 0.0
27/10:30am 20.6 18.2 7.2 42 6.9 SW 9 17 5 9 - - 0.0
27/10:00am 19.8 17.4 7.2 44 6.4 WSW 9 19 5 10 - - 0.0
27/09:30am 19.2 17.8 9.7 54 5.1 WSW 7 13 4 7 - - 0.0
27/09:00am 17.9 16.5 8.7 55 4.8 W 6 11 3 6 - - 0.0
27/08:30am 16.5 15.3 9.4 63 3.7 W 6 7 3 4 - - 0.0
27/08:00am 14.5 14.6 11.6 83 1.6 WSW 2 7 1 4 - - 0.0
27/07:30am 11.6 11.6 9.7 88 1.0 CALM 0 0 0 0 - - 0.0
27/07:00am 11.5 11.4 9.4 87 1.1 CALM 0 0 0 0 - - 0.0
27/06:30am 11.5 11.0 9.2 86 1.2 SW 2 6 1 3 - - 0.0
27/06:00am 11.6 10.1 9.3 86 1.2 WSW 7 9 4 5 - - 0.0
27/05:30am 11.6 10.2 9.7 88 1.0 WSW 7 9 4 5 - - 0.0
27/05:00am 11.6 10.5 10.0 90 0.8 WSW 6 9 3 5 - - 0.0
27/04:30am 11.9 10.7 10.3 90 0.8 WSW 7 9 4 5 - - 0.0
27/04:00am 12.1 11.0 10.8 92 0.7 WSW 7 9 4 5 - - 0.0
27/03:30am 12.5 11.6 11.4 93 0.6 WSW 7 9 4 5 - - 0.0
27/03:00am 12.7 12.8 11.4 92 0.7 S 2 7 1 4 - - 0.0
27/02:30am 13.4 13.7 12.3 93 0.6 S 2 6 1 3 - - 0.0
27/02:00am 13.6 14.0 12.5 93 0.6 SW 2 6 1 3 - - 0.0
27/01:30am 13.8 13.5 12.7 93 0.6 SW 6 7 3 4 - - 0.0
27/01:00am 14.0 14.9 12.9 93 0.6 CALM 0 0 0 0 - - 0.0
27/12:30am 14.2 15.2 13.1 93 0.6 CALM 0 6 0 3 - - 0.0
27/12:00am 13.8 14.6 12.5 92 0.7 CALM 0 0 0 0 - - 0.0
 
Date/Time
EST
Temp
°C
App
Temp
°C
Dew
Point
Rel
Hum
%
Delta-T
°C
Wind Press
QNH
hPa
Press
MSL
hPa
Rain
since 9 am
mm
Dir
 
Spd
km/h
Gust
km/h
Spd
kts
Gust
kts
26/11:30pm 14.2 15.1 12.9 92 0.7 CALM 0 0 0 0 - - 0.0
26/11:00pm 14.5 15.5 13.2 92 0.7 CALM 0 0 0 0 - - 0.0
26/10:30pm 14.7 15.8 13.4 92 0.7 CALM 0 0 0 0 - - 0.0
26/10:00pm 15.0 16.2 13.7 92 0.7 CALM 0 0 0 0 - - 0.0
26/09:30pm 15.0 16.1 13.5 91 0.8 CALM 0 6 0 3 - - 0.0
26/09:00pm 15.5 16.8 14.0 91 0.8 CALM 0 0 0 0 - - 0.0
26/08:30pm 15.9 17.3 14.4 91 0.9 CALM 0 6 0 3 - - 0.0
26/08:00pm 16.2 17.3 14.6 90 0.9 WSW 2 6 1 3 - - 0.0
26/07:30pm 16.5 18.1 15.0 91 0.9 CALM 0 0 0 0 - - 0.0

Other Formats:

Comma delimited format used in spreadsheet applications
http://www.bom.gov.au/fwo/IDQ60801/IDQ60801.95566.axf

JavaScript Object Notation format (JSON) in row-major order
http://www.bom.gov.au/fwo/IDQ60801/IDQ60801.95566.json